sensor_id;sensor_type;location;lat;lon;timestamp;temperature;humidity
28773;DHT22;15925;51.222;5.678;2022-10-31T00:01:35;14.60;99.90
28773;DHT22;15925;51.222;5.678;2022-10-31T00:04:01;14.60;99.90
28773;DHT22;15925;51.222;5.678;2022-10-31T00:06:27;14.60;99.90
28773;DHT22;15925;51.222;5.678;2022-10-31T00:08:56;14.60;99.90
28773;DHT22;15925;51.222;5.678;2022-10-31T00:11:22;14.60;99.90
28773;DHT22;15925;51.222;5.678;2022-10-31T00:13:48;14.60;99.90
28773;DHT22;15925;51.222;5.678;2022-10-31T00:16:19;14.40;99.90
28773;DHT22;15925;51.222;5.678;2022-10-31T00:18:48;14.40;99.90
28773;DHT22;15925;51.222;5.678;2022-10-31T00:21:14;14.40;99.90
28773;DHT22;15925;51.222;5.678;2022-10-31T00:23:40;14.40;99.90
28773;DHT22;15925;51.222;5.678;2022-10-31T00:26:06;14.40;99.90
28773;DHT22;15925;51.222;5.678;2022-10-31T00:28:32;14.40;99.90
28773;DHT22;15925;51.222;5.678;2022-10-31T00:31:03;14.40;99.90
28773;DHT22;15925;51.222;5.678;2022-10-31T00:33:29;14.40;99.90
28773;DHT22;15925;51.222;5.678;2022-10-31T00:35:56;14.40;99.90
28773;DHT22;15925;51.222;5.678;2022-10-31T00:38:21;14.30;99.90
28773;DHT22;15925;51.222;5.678;2022-10-31T00:40:47;14.30;99.90
28773;DHT22;15925;51.222;5.678;2022-10-31T00:43:13;14.30;99.90
28773;DHT22;15925;51.222;5.678;2022-10-31T00:45:40;14.30;99.90
28773;DHT22;15925;51.222;5.678;2022-10-31T00:48:06;14.30;99.90
28773;DHT22;15925;51.222;5.678;2022-10-31T00:50:32;14.20;99.90
28773;DHT22;15925;51.222;5.678;2022-10-31T00:52:59;14.30;99.90
28773;DHT22;15925;51.222;5.678;2022-10-31T00:55:25;14.30;99.90
28773;DHT22;15925;51.222;5.678;2022-10-31T00:57:51;14.30;99.90
28773;DHT22;15925;51.222;5.678;2022-10-31T01:00:17;14.30;99.90
28773;DHT22;15925;51.222;5.678;2022-10-31T01:02:43;14.40;99.90
28773;DHT22;15925;51.222;5.678;2022-10-31T01:05:09;14.30;99.90
28773;DHT22;15925;51.222;5.678;2022-10-31T01:07:37;14.30;99.90
28773;DHT22;15925;51.222;5.678;2022-10-31T01:10:05;14.30;99.90
28773;DHT22;15925;51.222;5.678;2022-10-31T01:12:36;14.30;99.90
28773;DHT22;15925;51.222;5.678;2022-10-31T01:15:02;14.30;99.90
28773;DHT22;15925;51.222;5.678;2022-10-31T01:17:28;14.40;99.90
28773;DHT22;15925;51.222;5.678;2022-10-31T01:19:54;14.30;99.90
28773;DHT22;15925;51.222;5.678;2022-10-31T01:22:20;14.30;99.90
28773;DHT22;15925;51.222;5.678;2022-10-31T01:24:46;14.30;99.90
28773;DHT22;15925;51.222;5.678;2022-10-31T01:27:12;14.30;99.90
28773;DHT22;15925;51.222;5.678;2022-10-31T01:29:37;14.30;99.90
28773;DHT22;15925;51.222;5.678;2022-10-31T01:32:03;14.30;99.90
28773;DHT22;15925;51.222;5.678;2022-10-31T01:34:29;14.30;99.90
28773;DHT22;15925;51.222;5.678;2022-10-31T01:36:55;14.40;99.90
28773;DHT22;15925;51.222;5.678;2022-10-31T01:39:22;14.30;99.90
28773;DHT22;15925;51.222;5.678;2022-10-31T01:41:50;14.20;99.90
28773;DHT22;15925;51.222;5.678;2022-10-31T01:47:06;14.30;99.90
28773;DHT22;15925;51.222;5.678;2022-10-31T01:49:37;14.30;99.90
28773;DHT22;15925;51.222;5.678;2022-10-31T01:52:30;14.30;99.90
28773;DHT22;15925;51.222;5.678;2022-10-31T01:54:58;14.20;99.90
28773;DHT22;15925;51.222;5.678;2022-10-31T01:57:25;14.20;99.90
28773;DHT22;15925;51.222;5.678;2022-10-31T01:59:55;14.20;99.90
28773;DHT22;15925;51.222;5.678;2022-10-31T02:02:22;14.20;99.90
28773;DHT22;15925;51.222;5.678;2022-10-31T02:04:50;14.20;99.90
28773;DHT22;15925;51.222;5.678;2022-10-31T02:07:23;14.10;99.90
28773;DHT22;15925;51.222;5.678;2022-10-31T02:09:50;14.10;99.90
28773;DHT22;15925;51.222;5.678;2022-10-31T02:12:17;14.10;99.90
28773;DHT22;15925;51.222;5.678;2022-10-31T02:14:44;14.20;99.90
28773;DHT22;15925;51.222;5.678;2022-10-31T02:17:10;14.10;99.90
28773;DHT22;15925;51.222;5.678;2022-10-31T02:20:27;14.00;99.90
28773;DHT22;15925;51.222;5.678;2022-10-31T02:28:40;13.90;99.90
28773;DHT22;15925;51.222;5.678;2022-10-31T02:33:52;13.80;99.90
28773;DHT22;15925;51.222;5.678;2022-10-31T02:36:26;13.80;99.90
28773;DHT22;15925;51.222;5.678;2022-10-31T02:41:44;13.80;99.90
28773;DHT22;15925;51.222;5.678;2022-10-31T02:46:59;13.80;99.90
28773;DHT22;15925;51.222;5.678;2022-10-31T02:49:49;13.70;99.90
28773;DHT22;15925;51.222;5.678;2022-10-31T02:54:46;13.60;99.90
28773;DHT22;15925;51.222;5.678;2022-10-31T02:57:13;13.60;99.90
28773;DHT22;15925;51.222;5.678;2022-10-31T02:59:46;13.70;99.90
28773;DHT22;15925;51.222;5.678;2022-10-31T03:07:58;13.60;99.90
28773;DHT22;15925;51.222;5.678;2022-10-31T03:16:00;13.50;99.90
28773;DHT22;15925;51.222;5.678;2022-10-31T03:18:37;13.50;99.90
28773;DHT22;15925;51.222;5.678;2022-10-31T03:21:27;13.50;99.90
28773;DHT22;15925;51.222;5.678;2022-10-31T03:23:55;13.30;99.90
28773;DHT22;15925;51.222;5.678;2022-10-31T03:26:24;13.30;99.90
28773;DHT22;15925;51.222;5.678;2022-10-31T03:28:59;13.20;99.90
28773;DHT22;15925;51.222;5.678;2022-10-31T03:31:30;13.40;99.90
28773;DHT22;15925;51.222;5.678;2022-10-31T03:34:00;13.20;99.90
28773;DHT22;15925;51.222;5.678;2022-10-31T03:36:31;13.20;99.90
28773;DHT22;15925;51.222;5.678;2022-10-31T03:39:02;13.30;99.90
28773;DHT22;15925;51.222;5.678;2022-10-31T03:41:35;13.30;99.90
28773;DHT22;15925;51.222;5.678;2022-10-31T03:44:08;13.40;99.90
28773;DHT22;15925;51.222;5.678;2022-10-31T03:46:38;13.40;99.90
28773;DHT22;15925;51.222;5.678;2022-10-31T03:49:04;13.40;99.90
28773;DHT22;15925;51.222;5.678;2022-10-31T03:54:40;13.40;99.90
28773;DHT22;15925;51.222;5.678;2022-10-31T03:57:41;13.30;99.90
28773;DHT22;15925;51.222;5.678;2022-10-31T04:00:15;13.00;99.90
28773;DHT22;15925;51.222;5.678;2022-10-31T04:05:29;13.00;99.90
28773;DHT22;15925;51.222;5.678;2022-10-31T04:08:01;13.10;99.90
28773;DHT22;15925;51.222;5.678;2022-10-31T04:10:31;13.10;99.90
28773;DHT22;15925;51.222;5.678;2022-10-31T04:13:03;13.20;99.90
28773;DHT22;15925;51.222;5.678;2022-10-31T04:15:38;13.10;99.90
28773;DHT22;15925;51.222;5.678;2022-10-31T04:18:06;13.10;99.90
28773;DHT22;15925;51.222;5.678;2022-10-31T04:20:32;13.10;99.90
28773;DHT22;15925;51.222;5.678;2022-10-31T04:22:58;13.10;99.90
28773;DHT22;15925;51.222;5.678;2022-10-31T04:25:24;13.10;99.90
28773;DHT22;15925;51.222;5.678;2022-10-31T04:27:51;13.10;99.90
28773;DHT22;15925;51.222;5.678;2022-10-31T04:30:17;13.10;99.90
28773;DHT22;15925;51.222;5.678;2022-10-31T04:32:43;12.90;99.90
28773;DHT22;15925;51.222;5.678;2022-10-31T04:35:09;13.00;99.90
28773;DHT22;15925;51.222;5.678;2022-10-31T04:37:35;13.00;99.90
28773;DHT22;15925;51.222;5.678;2022-10-31T04:40:02;13.00;99.90
28773;DHT22;15925;51.222;5.678;2022-10-31T04:42:37;13.00;99.90
28773;DHT22;15925;51.222;5.678;2022-10-31T04:45:06;12.90;99.90
28773;DHT22;15925;51.222;5.678;2022-10-31T04:47:34;12.80;99.90
28773;DHT22;15925;51.222;5.678;2022-10-31T04:50:01;12.80;99.90
28773;DHT22;15925;51.222;5.678;2022-10-31T04:52:28;12.90;99.90
28773;DHT22;15925;51.222;5.678;2022-10-31T04:54:54;12.90;99.90
28773;DHT22;15925;51.222;5.678;2022-10-31T04:57:49;13.00;99.90
28773;DHT22;15925;51.222;5.678;2022-10-31T05:00:19;13.00;99.90
28773;DHT22;15925;51.222;5.678;2022-10-31T05:02:52;13.00;99.90
28773;DHT22;15925;51.222;5.678;2022-10-31T05:05:21;13.00;99.90
28773;DHT22;15925;51.222;5.678;2022-10-31T05:07:49;13.00;99.90
28773;DHT22;15925;51.222;5.678;2022-10-31T05:10:19;13.00;99.90
28773;DHT22;15925;51.222;5.678;2022-10-31T05:12:49;12.90;99.90
28773;DHT22;15925;51.222;5.678;2022-10-31T05:15:33;12.80;99.90
28773;DHT22;15925;51.222;5.678;2022-10-31T05:18:19;12.80;99.90
28773;DHT22;15925;51.222;5.678;2022-10-31T05:21:08;12.70;99.90
28773;DHT22;15925;51.222;5.678;2022-10-31T05:23:37;12.70;99.90
28773;DHT22;15925;51.222;5.678;2022-10-31T05:26:06;12.80;99.90
28773;DHT22;15925;51.222;5.678;2022-10-31T05:28:32;12.80;99.90
28773;DHT22;15925;51.222;5.678;2022-10-31T05:30:59;12.80;99.90
28773;DHT22;15925;51.222;5.678;2022-10-31T05:33:25;12.90;99.90
28773;DHT22;15925;51.222;5.678;2022-10-31T05:36:09;12.80;99.90
28773;DHT22;15925;51.222;5.678;2022-10-31T05:38:55;12.80;99.90
28773;DHT22;15925;51.222;5.678;2022-10-31T05:41:27;12.70;99.90
28773;DHT22;15925;51.222;5.678;2022-10-31T05:44:02;12.80;99.90
28773;DHT22;15925;51.222;5.678;2022-10-31T05:46:31;12.70;99.90
28773;DHT22;15925;51.222;5.678;2022-10-31T05:49:35;12.70;99.90
28773;DHT22;15925;51.222;5.678;2022-10-31T05:52:22;12.70;99.90
28773;DHT22;15925;51.222;5.678;2022-10-31T05:54:55;12.70;99.90
28773;DHT22;15925;51.222;5.678;2022-10-31T05:57:21;12.70;99.90
28773;DHT22;15925;51.222;5.678;2022-10-31T05:59:47;12.70;99.90
28773;DHT22;15925;51.222;5.678;2022-10-31T06:02:13;12.60;99.90
28773;DHT22;15925;51.222;5.678;2022-10-31T06:04:57;12.60;99.90
28773;DHT22;15925;51.222;5.678;2022-10-31T06:07:25;12.50;99.90
28773;DHT22;15925;51.222;5.678;2022-10-31T06:09:51;12.50;99.90
28773;DHT22;15925;51.222;5.678;2022-10-31T06:12:21;12.50;99.90
28773;DHT22;15925;51.222;5.678;2022-10-31T06:15:06;12.50;99.90
28773;DHT22;15925;51.222;5.678;2022-10-31T06:17:34;12.60;99.90
28773;DHT22;15925;51.222;5.678;2022-10-31T06:20:19;12.60;99.90
28773;DHT22;15925;51.222;5.678;2022-10-31T06:22:54;12.50;99.90
28773;DHT22;15925;51.222;5.678;2022-10-31T06:25:20;12.40;99.90
28773;DHT22;15925;51.222;5.678;2022-10-31T06:27:48;12.50;99.90
28773;DHT22;15925;51.222;5.678;2022-10-31T06:30:15;12.60;99.90
28773;DHT22;15925;51.222;5.678;2022-10-31T06:32:41;12.50;99.90
28773;DHT22;15925;51.222;5.678;2022-10-31T06:35:09;12.60;99.90
28773;DHT22;15925;51.222;5.678;2022-10-31T06:37:36;12.60;99.90
28773;DHT22;15925;51.222;5.678;2022-10-31T06:40:13;12.60;99.90
28773;DHT22;15925;51.222;5.678;2022-10-31T06:43:00;12.60;99.90
28773;DHT22;15925;51.222;5.678;2022-10-31T06:45:26;12.60;99.90
28773;DHT22;15925;51.222;5.678;2022-10-31T06:48:19;12.60;99.90
28773;DHT22;15925;51.222;5.678;2022-10-31T06:51:05;12.60;99.90
28773;DHT22;15925;51.222;5.678;2022-10-31T06:53:31;12.60;99.90
28773;DHT22;15925;51.222;5.678;2022-10-31T06:55:57;12.50;99.90
28773;DHT22;15925;51.222;5.678;2022-10-31T06:58:24;12.60;99.90
28773;DHT22;15925;51.222;5.678;2022-10-31T07:00:51;12.60;99.90
28773;DHT22;15925;51.222;5.678;2022-10-31T07:03:17;12.60;99.90
28773;DHT22;15925;51.222;5.678;2022-10-31T07:05:44;12.60;99.90
28773;DHT22;15925;51.222;5.678;2022-10-31T07:08:12;12.30;99.90
28773;DHT22;15925;51.222;5.678;2022-10-31T07:10:40;12.30;99.90
28773;DHT22;15925;51.222;5.678;2022-10-31T07:13:12;12.30;99.90
28773;DHT22;15925;51.222;5.678;2022-10-31T07:15:40;12.40;99.90
28773;DHT22;15925;51.222;5.678;2022-10-31T07:18:08;12.40;99.90
28773;DHT22;15925;51.222;5.678;2022-10-31T07:20:35;12.50;99.90
28773;DHT22;15925;51.222;5.678;2022-10-31T07:23:02;12.50;99.90
28773;DHT22;15925;51.222;5.678;2022-10-31T07:25:30;12.50;99.90
28773;DHT22;15925;51.222;5.678;2022-10-31T07:28:05;12.50;99.90
28773;DHT22;15925;51.222;5.678;2022-10-31T07:30:31;12.50;99.90
28773;DHT22;15925;51.222;5.678;2022-10-31T07:32:57;12.50;99.90
28773;DHT22;15925;51.222;5.678;2022-10-31T07:35:28;12.50;99.90
28773;DHT22;15925;51.222;5.678;2022-10-31T07:38:07;12.50;99.90
28773;DHT22;15925;51.222;5.678;2022-10-31T07:40:33;12.50;99.90
28773;DHT22;15925;51.222;5.678;2022-10-31T07:42:59;12.40;99.90
28773;DHT22;15925;51.222;5.678;2022-10-31T07:45:43;12.40;99.90
28773;DHT22;15925;51.222;5.678;2022-10-31T07:48:32;12.40;99.90
28773;DHT22;15925;51.222;5.678;2022-10-31T07:51:16;12.30;99.90
28773;DHT22;15925;51.222;5.678;2022-10-31T07:54:00;12.30;99.90
28773;DHT22;15925;51.222;5.678;2022-10-31T07:56:29;12.40;99.90
28773;DHT22;15925;51.222;5.678;2022-10-31T07:58:55;12.50;99.90
28773;DHT22;15925;51.222;5.678;2022-10-31T08:01:21;12.60;99.90
28773;DHT22;15925;51.222;5.678;2022-10-31T08:04:04;12.60;99.90
28773;DHT22;15925;51.222;5.678;2022-10-31T08:06:48;12.70;99.90
28773;DHT22;15925;51.222;5.678;2022-10-31T08:09:29;12.70;99.90
28773;DHT22;15925;51.222;5.678;2022-10-31T08:11:57;12.80;99.90
28773;DHT22;15925;51.222;5.678;2022-10-31T08:14:24;12.90;99.90
28773;DHT22;15925;51.222;5.678;2022-10-31T08:16:52;12.90;99.90
28773;DHT22;15925;51.222;5.678;2022-10-31T08:19:18;12.90;99.90
28773;DHT22;15925;51.222;5.678;2022-10-31T08:21:44;12.90;99.90
28773;DHT22;15925;51.222;5.678;2022-10-31T08:24:10;12.90;99.90
28773;DHT22;15925;51.222;5.678;2022-10-31T08:26:37;12.90;99.90
28773;DHT22;15925;51.222;5.678;2022-10-31T08:29:06;13.00;99.90
28773;DHT22;15925;51.222;5.678;2022-10-31T08:31:35;12.90;99.90
28773;DHT22;15925;51.222;5.678;2022-10-31T08:34:39;12.90;99.90
28773;DHT22;15925;51.222;5.678;2022-10-31T08:37:23;13.00;99.90
28773;DHT22;15925;51.222;5.678;2022-10-31T08:39:53;13.00;99.90
28773;DHT22;15925;51.222;5.678;2022-10-31T08:42:20;13.00;99.90
28773;DHT22;15925;51.222;5.678;2022-10-31T08:44:46;13.10;99.90
28773;DHT22;15925;51.222;5.678;2022-10-31T08:47:12;13.10;99.90
28773;DHT22;15925;51.222;5.678;2022-10-31T08:49:38;13.10;99.90
28773;DHT22;15925;51.222;5.678;2022-10-31T08:52:04;13.20;99.90
28773;DHT22;15925;51.222;5.678;2022-10-31T08:54:34;13.30;99.90
28773;DHT22;15925;51.222;5.678;2022-10-31T08:57:19;13.40;99.90
28773;DHT22;15925;51.222;5.678;2022-10-31T08:59:46;13.40;99.90
28773;DHT22;15925;51.222;5.678;2022-10-31T09:02:28;13.50;99.90
28773;DHT22;15925;51.222;5.678;2022-10-31T09:04:58;13.60;99.90
28773;DHT22;15925;51.222;5.678;2022-10-31T09:07:24;13.70;99.90
28773;DHT22;15925;51.222;5.678;2022-10-31T09:09:50;13.70;99.90
28773;DHT22;15925;51.222;5.678;2022-10-31T09:12:18;13.80;99.90
28773;DHT22;15925;51.222;5.678;2022-10-31T09:14:46;13.90;99.90
28773;DHT22;15925;51.222;5.678;2022-10-31T09:17:27;14.00;99.90
28773;DHT22;15925;51.222;5.678;2022-10-31T09:20:14;14.10;99.90
28773;DHT22;15925;51.222;5.678;2022-10-31T09:22:41;14.20;99.90
28773;DHT22;15925;51.222;5.678;2022-10-31T09:25:07;14.30;99.90
28773;DHT22;15925;51.222;5.678;2022-10-31T09:27:33;14.30;99.90
28773;DHT22;15925;51.222;5.678;2022-10-31T09:30:00;14.40;99.90
28773;DHT22;15925;51.222;5.678;2022-10-31T09:32:26;14.50;99.90
28773;DHT22;15925;51.222;5.678;2022-10-31T09:34:51;14.60;99.90
28773;DHT22;15925;51.222;5.678;2022-10-31T09:37:20;14.60;99.90
28773;DHT22;15925;51.222;5.678;2022-10-31T09:39:46;14.70;99.90
28773;DHT22;15925;51.222;5.678;2022-10-31T09:42:44;14.80;99.90
28773;DHT22;15925;51.222;5.678;2022-10-31T09:45:31;14.90;99.90
28773;DHT22;15925;51.222;5.678;2022-10-31T09:51:33;15.00;99.90
28773;DHT22;15925;51.222;5.678;2022-10-31T09:54:39;15.10;99.90
28773;DHT22;15925;51.222;5.678;2022-10-31T09:57:13;15.10;99.90
28773;DHT22;15925;51.222;5.678;2022-10-31T09:59:42;15.20;99.90
28773;DHT22;15925;51.222;5.678;2022-10-31T10:02:14;15.30;99.90
28773;DHT22;15925;51.222;5.678;2022-10-31T10:19:05;15.70;99.90
28773;DHT22;15925;51.222;5.678;2022-10-31T10:27:49;15.80;99.90
28773;DHT22;15925;51.222;5.678;2022-10-31T10:30:42;15.90;99.90
28773;DHT22;15925;51.222;5.678;2022-10-31T10:33:20;16.00;99.90
28773;DHT22;15925;51.222;5.678;2022-10-31T10:35:53;16.00;99.90
28773;DHT22;15925;51.222;5.678;2022-10-31T10:38:36;16.10;99.90
28773;DHT22;15925;51.222;5.678;2022-10-31T10:41:10;16.20;99.90
28773;DHT22;15925;51.222;5.678;2022-10-31T10:43:37;16.20;99.90
28773;DHT22;15925;51.222;5.678;2022-10-31T10:46:15;16.30;99.90
28773;DHT22;15925;51.222;5.678;2022-10-31T10:49:16;16.30;99.90
28773;DHT22;15925;51.222;5.678;2022-10-31T11:00:02;16.50;99.90
28773;DHT22;15925;51.222;5.678;2022-10-31T11:02:31;16.60;99.90
28773;DHT22;15925;51.222;5.678;2022-10-31T11:04:59;16.60;99.90
28773;DHT22;15925;51.222;5.678;2022-10-31T11:07:37;16.60;99.90
28773;DHT22;15925;51.222;5.678;2022-10-31T11:10:04;16.70;99.90
28773;DHT22;15925;51.222;5.678;2022-10-31T11:12:32;16.70;99.90
28773;DHT22;15925;51.222;5.678;2022-10-31T11:15:15;16.70;99.90
28773;DHT22;15925;51.222;5.678;2022-10-31T11:17:42;16.70;99.90
28773;DHT22;15925;51.222;5.678;2022-10-31T11:22:39;16.80;99.90
28773;DHT22;15925;51.222;5.678;2022-10-31T11:25:26;16.90;99.90
28773;DHT22;15925;51.222;5.678;2022-10-31T11:28:05;16.90;99.90
28773;DHT22;15925;51.222;5.678;2022-10-31T11:30:41;16.90;99.90
28773;DHT22;15925;51.222;5.678;2022-10-31T11:35:48;17.00;99.90
28773;DHT22;15925;51.222;5.678;2022-10-31T11:38:18;17.00;99.90
28773;DHT22;15925;51.222;5.678;2022-10-31T11:40:57;17.00;99.90
28773;DHT22;15925;51.222;5.678;2022-10-31T11:43:24;17.00;99.90
28773;DHT22;15925;51.222;5.678;2022-10-31T11:45:50;17.10;99.90
28773;DHT22;15925;51.222;5.678;2022-10-31T11:48:22;17.10;99.90
28773;DHT22;15925;51.222;5.678;2022-10-31T11:50:57;17.10;99.90
28773;DHT22;15925;51.222;5.678;2022-10-31T11:53:29;17.10;99.90
28773;DHT22;15925;51.222;5.678;2022-10-31T11:56:12;17.20;99.90
28773;DHT22;15925;51.222;5.678;2022-10-31T11:58:38;17.20;99.90
28773;DHT22;15925;51.222;5.678;2022-10-31T12:01:05;17.20;99.90
28773;DHT22;15925;51.222;5.678;2022-10-31T12:03:46;17.30;99.90
28773;DHT22;15925;51.222;5.678;2022-10-31T12:06:26;17.30;99.90
28773;DHT22;15925;51.222;5.678;2022-10-31T12:08:54;17.30;99.90
28773;DHT22;15925;51.222;5.678;2022-10-31T12:17:15;17.40;99.90
28773;DHT22;15925;51.222;5.678;2022-10-31T12:22:42;17.40;99.90
28773;DHT22;15925;51.222;5.678;2022-10-31T12:30:48;17.50;99.90
28773;DHT22;15925;51.222;5.678;2022-10-31T12:44:05;17.50;99.90
28773;DHT22;15925;51.222;5.678;2022-10-31T12:52:19;17.60;99.90
28773;DHT22;15925;51.222;5.678;2022-10-31T12:57:42;17.60;99.90
28773;DHT22;15925;51.222;5.678;2022-10-31T13:00:17;17.70;99.90
28773;DHT22;15925;51.222;5.678;2022-10-31T13:02:54;17.70;99.90
28773;DHT22;15925;51.222;5.678;2022-10-31T13:05:31;17.80;99.90
28773;DHT22;15925;51.222;5.678;2022-10-31T13:08:03;17.80;99.90
28773;DHT22;15925;51.222;5.678;2022-10-31T13:10:36;17.80;99.90
28773;DHT22;15925;51.222;5.678;2022-10-31T13:13:23;17.80;99.90
28773;DHT22;15925;51.222;5.678;2022-10-31T13:15:57;17.80;99.90
28773;DHT22;15925;51.222;5.678;2022-10-31T13:18:30;17.80;99.90
28773;DHT22;15925;51.222;5.678;2022-10-31T13:20:59;17.90;99.90
28773;DHT22;15925;51.222;5.678;2022-10-31T13:23:35;17.90;99.90
28773;DHT22;15925;51.222;5.678;2022-10-31T13:26:37;17.90;99.90
28773;DHT22;15925;51.222;5.678;2022-10-31T13:31:51;17.90;99.90
28773;DHT22;15925;51.222;5.678;2022-10-31T13:34:26;18.00;99.90
28773;DHT22;15925;51.222;5.678;2022-10-31T13:37:04;18.00;99.90
28773;DHT22;15925;51.222;5.678;2022-10-31T13:40:09;18.00;99.90
28773;DHT22;15925;51.222;5.678;2022-10-31T13:45:51;18.20;99.90
28773;DHT22;15925;51.222;5.678;2022-10-31T13:48:31;18.20;99.90
28773;DHT22;15925;51.222;5.678;2022-10-31T13:51:01;18.30;99.90
28773;DHT22;15925;51.222;5.678;2022-10-31T13:53:44;18.30;99.90
28773;DHT22;15925;51.222;5.678;2022-10-31T13:56:14;18.20;99.90
28773;DHT22;15925;51.222;5.678;2022-10-31T14:01:22;18.30;99.90
28773;DHT22;15925;51.222;5.678;2022-10-31T14:09:19;18.40;99.90
28773;DHT22;15925;51.222;5.678;2022-10-31T14:11:47;18.50;99.90
28773;DHT22;15925;51.222;5.678;2022-10-31T14:14:14;18.50;99.90
28773;DHT22;15925;51.222;5.678;2022-10-31T14:16:42;18.50;99.90
28773;DHT22;15925;51.222;5.678;2022-10-31T14:19:15;18.50;99.90
28773;DHT22;15925;51.222;5.678;2022-10-31T14:21:44;18.60;99.90
28773;DHT22;15925;51.222;5.678;2022-10-31T14:24:15;18.60;99.90
28773;DHT22;15925;51.222;5.678;2022-10-31T14:27:01;18.60;99.90
28773;DHT22;15925;51.222;5.678;2022-10-31T14:29:33;18.60;99.90
28773;DHT22;15925;51.222;5.678;2022-10-31T14:50:57;18.60;99.90
28773;DHT22;15925;51.222;5.678;2022-10-31T14:53:45;18.60;99.90
28773;DHT22;15925;51.222;5.678;2022-10-31T14:56:12;18.60;99.90
28773;DHT22;15925;51.222;5.678;2022-10-31T14:58:40;18.50;99.90
28773;DHT22;15925;51.222;5.678;2022-10-31T15:01:23;18.50;99.90
28773;DHT22;15925;51.222;5.678;2022-10-31T15:03:50;18.50;99.90
28773;DHT22;15925;51.222;5.678;2022-10-31T15:06:18;18.40;99.90
28773;DHT22;15925;51.222;5.678;2022-10-31T15:08:47;18.40;99.90
28773;DHT22;15925;51.222;5.678;2022-10-31T15:11:15;18.40;99.90
28773;DHT22;15925;51.222;5.678;2022-10-31T15:13:43;18.40;99.90
28773;DHT22;15925;51.222;5.678;2022-10-31T15:16:10;18.40;99.90
28773;DHT22;15925;51.222;5.678;2022-10-31T15:18:44;18.40;99.90
28773;DHT22;15925;51.222;5.678;2022-10-31T15:21:15;18.40;99.90
28773;DHT22;15925;51.222;5.678;2022-10-31T15:23:42;18.40;99.90
28773;DHT22;15925;51.222;5.678;2022-10-31T15:26:14;18.40;99.90
28773;DHT22;15925;51.222;5.678;2022-10-31T15:28:41;18.30;99.90
28773;DHT22;15925;51.222;5.678;2022-10-31T15:31:15;18.20;99.90
28773;DHT22;15925;51.222;5.678;2022-10-31T15:33:42;18.20;99.90
28773;DHT22;15925;51.222;5.678;2022-10-31T15:36:22;18.20;99.90
28773;DHT22;15925;51.222;5.678;2022-10-31T15:38:49;18.20;99.90
28773;DHT22;15925;51.222;5.678;2022-10-31T15:44:12;18.20;99.90
28773;DHT22;15925;51.222;5.678;2022-10-31T15:46:39;18.20;99.90
28773;DHT22;15925;51.222;5.678;2022-10-31T15:49:18;18.10;99.90
28773;DHT22;15925;51.222;5.678;2022-10-31T15:51:48;18.00;99.90
28773;DHT22;15925;51.222;5.678;2022-10-31T15:54:14;18.00;99.90
28773;DHT22;15925;51.222;5.678;2022-10-31T15:56:43;18.00;99.90
28773;DHT22;15925;51.222;5.678;2022-10-31T15:59:19;18.00;99.90
28773;DHT22;15925;51.222;5.678;2022-10-31T16:01:59;17.90;99.90
28773;DHT22;15925;51.222;5.678;2022-10-31T16:04:25;17.90;99.90
28773;DHT22;15925;51.222;5.678;2022-10-31T16:07:11;17.90;99.90
28773;DHT22;15925;51.222;5.678;2022-10-31T16:09:48;17.90;99.90
28773;DHT22;15925;51.222;5.678;2022-10-31T16:12:14;17.90;99.90
28773;DHT22;15925;51.222;5.678;2022-10-31T16:14:41;17.80;99.90
28773;DHT22;15925;51.222;5.678;2022-10-31T16:17:10;17.70;99.90
28773;DHT22;15925;51.222;5.678;2022-10-31T16:19:45;17.60;99.90
28773;DHT22;15925;51.222;5.678;2022-10-31T16:22:18;17.60;99.90
28773;DHT22;15925;51.222;5.678;2022-10-31T16:24:52;17.60;99.90
28773;DHT22;15925;51.222;5.678;2022-10-31T16:27:20;17.60;99.90
28773;DHT22;15925;51.222;5.678;2022-10-31T16:29:51;17.60;99.90
28773;DHT22;15925;51.222;5.678;2022-10-31T16:32:36;17.50;99.90
28773;DHT22;15925;51.222;5.678;2022-10-31T16:37:38;17.50;99.90
28773;DHT22;15925;51.222;5.678;2022-10-31T16:40:04;17.40;99.90
28773;DHT22;15925;51.222;5.678;2022-10-31T16:42:30;17.40;99.90
28773;DHT22;15925;51.222;5.678;2022-10-31T16:44:56;17.40;99.90
28773;DHT22;15925;51.222;5.678;2022-10-31T16:47:22;17.40;99.90
28773;DHT22;15925;51.222;5.678;2022-10-31T16:49:48;17.40;99.90
28773;DHT22;15925;51.222;5.678;2022-10-31T16:52:16;17.30;99.90
28773;DHT22;15925;51.222;5.678;2022-10-31T16:54:42;17.30;99.90
28773;DHT22;15925;51.222;5.678;2022-10-31T16:57:16;17.20;99.90
28773;DHT22;15925;51.222;5.678;2022-10-31T16:59:43;17.20;99.90
28773;DHT22;15925;51.222;5.678;2022-10-31T17:02:15;17.20;99.90
28773;DHT22;15925;51.222;5.678;2022-10-31T17:04:41;17.20;99.90
28773;DHT22;15925;51.222;5.678;2022-10-31T17:07:07;17.10;99.90
28773;DHT22;15925;51.222;5.678;2022-10-31T17:09:33;17.10;99.90
28773;DHT22;15925;51.222;5.678;2022-10-31T17:11:59;17.10;99.90
28773;DHT22;15925;51.222;5.678;2022-10-31T17:14:25;17.10;99.90
28773;DHT22;15925;51.222;5.678;2022-10-31T17:16:50;17.00;99.90
28773;DHT22;15925;51.222;5.678;2022-10-31T17:19:16;17.00;99.90
28773;DHT22;15925;51.222;5.678;2022-10-31T17:21:42;17.00;99.90
28773;DHT22;15925;51.222;5.678;2022-10-31T17:24:12;17.00;99.90
28773;DHT22;15925;51.222;5.678;2022-10-31T17:26:37;17.00;99.90
28773;DHT22;15925;51.222;5.678;2022-10-31T17:29:03;16.90;99.90
28773;DHT22;15925;51.222;5.678;2022-10-31T17:31:33;16.90;99.90
28773;DHT22;15925;51.222;5.678;2022-10-31T17:34:01;16.90;99.90
28773;DHT22;15925;51.222;5.678;2022-10-31T17:36:28;16.90;99.90
28773;DHT22;15925;51.222;5.678;2022-10-31T17:38:54;16.80;99.90
28773;DHT22;15925;51.222;5.678;2022-10-31T17:41:20;16.90;99.90
28773;DHT22;15925;51.222;5.678;2022-10-31T17:43:45;16.80;99.90
28773;DHT22;15925;51.222;5.678;2022-10-31T17:46:11;16.80;99.90
28773;DHT22;15925;51.222;5.678;2022-10-31T17:48:37;16.80;99.90
28773;DHT22;15925;51.222;5.678;2022-10-31T17:51:04;16.80;99.90
28773;DHT22;15925;51.222;5.678;2022-10-31T17:53:32;16.70;99.90
28773;DHT22;15925;51.222;5.678;2022-10-31T17:56:06;16.70;99.90
28773;DHT22;15925;51.222;5.678;2022-10-31T17:58:34;16.70;99.90
28773;DHT22;15925;51.222;5.678;2022-10-31T18:01:00;16.70;99.90
28773;DHT22;15925;51.222;5.678;2022-10-31T18:03:31;16.70;99.90
28773;DHT22;15925;51.222;5.678;2022-10-31T18:05:58;16.60;99.90
28773;DHT22;15925;51.222;5.678;2022-10-31T18:08:28;16.60;99.90
28773;DHT22;15925;51.222;5.678;2022-10-31T18:10:55;16.50;99.90
28773;DHT22;15925;51.222;5.678;2022-10-31T18:13:25;16.50;99.90
28773;DHT22;15925;51.222;5.678;2022-10-31T18:15:50;16.50;99.90
28773;DHT22;15925;51.222;5.678;2022-10-31T18:18:16;16.40;99.90
28773;DHT22;15925;51.222;5.678;2022-10-31T18:20:42;16.40;99.90
28773;DHT22;15925;51.222;5.678;2022-10-31T18:23:08;16.40;99.90